Time;durP1;ratioP1;P1;durP2;ratioP2;P2;SDS_P1;SDS_P2;PMS_P1;PMS_P2;Temp;Humidity;BMP_temperature;BMP_pressure;BME280_temperature;BME280_humidity;BME280_pressure;Samples;Min_cycle;Max_cycle;Signal;HPM_P1;HPM_P2
2021/11/02 00:02:20;;;;;;;4.18;1.90;;;10.60;99.90;;;;;;5052604;28;20100;-77
2021/11/02 00:04:46;;;;;;;5.22;2.50;;;10.60;99.90;;;;;;5052774;28;20025;-77
2021/11/02 00:07:11;;;;;;;4.80;1.90;;;10.60;99.90;;;;;;5051760;28;20482;-77
2021/11/02 00:09:39;;;;;;;4.32;1.60;;;10.60;99.90;;;;;;5051786;28;20032;-77
2021/11/02 00:12:06;;;;;;;7.82;2.10;;;10.60;99.90;;;;;;5033600;28;20037;-77
2021/11/02 00:14:32;;;;;;;3.65;1.58;;;10.60;99.90;;;;;;5052702;28;20021;-77
2021/11/02 00:19:33;;;;;;;4.55;1.80;;;10.40;99.90;;;;;;5051632;28;20055;-77
2021/11/02 00:22:07;;;;;;;4.53;1.98;;;10.50;99.90;;;;;;5051717;28;20021;-77
2021/11/02 00:26:59;;;;;;;7.57;2.22;;;10.40;99.90;;;;;;5051902;28;20099;-78
2021/11/02 00:29:25;;;;;;;6.13;2.08;;;10.40;99.90;;;;;;5050429;28;20609;-77
2021/11/02 00:31:51;;;;;;;6.28;1.88;;;10.40;99.90;;;;;;5046600;28;20029;-77
2021/11/02 00:34:16;;;;;;;5.25;1.88;;;10.40;99.90;;;;;;5052294;28;20075;-77
2021/11/02 00:36:42;;;;;;;5.80;1.90;;;10.30;99.90;;;;;;5051667;28;20025;-77
2021/11/02 00:39:08;;;;;;;6.43;2.10;;;10.30;99.90;;;;;;5051312;28;20055;-77
2021/11/02 00:41:34;;;;;;;9.50;1.88;;;10.30;99.90;;;;;;5052079;28;20456;-77
2021/11/02 00:43:59;;;;;;;7.85;1.70;;;10.30;99.90;;;;;;5050922;28;20032;-77
2021/11/02 00:46:33;;;;;;;5.95;1.98;;;10.30;99.90;;;;;;5051035;28;20768;-77
2021/11/02 00:49:00;;;;;;;6.95;1.88;;;10.30;99.90;;;;;;5051305;28;20112;-78
2021/11/02 00:51:27;;;;;;;6.72;1.85;;;10.30;99.90;;;;;;5051572;28;20469;-78
2021/11/02 00:53:54;;;;;;;5.65;1.80;;;10.20;99.90;;;;;;5048834;28;20025;-79
2021/11/02 00:56:20;;;;;;;8.52;2.40;;;10.20;99.90;;;;;;5052111;28;20091;-78
2021/11/02 00:58:46;;;;;;;8.45;2.03;;;10.20;99.90;;;;;;5052488;28;20033;-77
2021/11/02 01:01:12;;;;;;;5.75;1.70;;;10.20;99.90;;;;;;5052603;28;20024;-78
2021/11/02 01:03:38;;;;;;;4.65;1.80;;;10.10;99.90;;;;;;5052913;28;20045;-77
2021/11/02 01:06:04;;;;;;;5.65;1.73;;;10.20;99.90;;;;;;5058930;28;20032;-77
2021/11/02 01:08:30;;;;;;;6.55;1.52;;;10.20;99.90;;;;;;5053708;28;20017;-77
2021/11/02 01:10:56;;;;;;;6.43;1.90;;;10.00;99.90;;;;;;5053074;28;20444;-77
2021/11/02 01:13:22;;;;;;;4.32;1.67;;;10.10;99.90;;;;;;5052915;28;20028;-77
2021/11/02 01:15:48;;;;;;;4.00;2.10;;;10.20;99.90;;;;;;5052955;28;20477;-77
2021/11/02 01:18:14;;;;;;;5.75;1.50;;;10.10;99.90;;;;;;5046827;28;20060;-77
2021/11/02 01:20:40;;;;;;;6.70;2.15;;;10.10;99.90;;;;;;5045189;28;20033;-76
2021/11/02 01:23:07;;;;;;;2.80;2.00;;;10.10;99.90;;;;;;5051904;28;20025;-77
2021/11/02 01:25:33;;;;;;;6.13;2.33;;;10.20;99.90;;;;;;5050784;28;20175;-77
2021/11/02 01:27:59;;;;;;;15.07;3.03;;;10.10;99.90;;;;;;5051742;28;20359;-77
2021/11/02 01:30:26;;;;;;;5.20;2.00;;;10.10;99.90;;;;;;5052051;28;20044;-77
2021/11/02 01:32:52;;;;;;;5.07;1.90;;;10.10;99.90;;;;;;5034609;28;20029;-77
2021/11/02 01:35:18;;;;;;;11.50;2.80;;;10.20;99.90;;;;;;5052638;28;20404;-77
2021/11/02 01:37:46;;;;;;;7.13;1.85;;;10.10;99.90;;;;;;5051500;28;20025;-77
2021/11/02 01:40:14;;;;;;;3.92;2.10;;;10.20;99.90;;;;;;5051854;28;20020;-77
2021/11/02 01:42:41;;;;;;;8.73;2.85;;;10.20;99.90;;;;;;5052591;28;20041;-77
2021/11/02 01:45:08;;;;;;;5.57;2.65;;;10.10;99.90;;;;;;5034596;28;20112;-77
2021/11/02 01:47:35;;;;;;;8.55;2.35;;;10.10;99.90;;;;;;5052018;28;20029;-77
2021/11/02 01:50:04;;;;;;;4.32;2.03;;;10.10;99.90;;;;;;5046847;28;20074;-77
2021/11/02 01:52:30;;;;;;;6.95;2.05;;;10.10;99.90;;;;;;5045045;28;20489;-77
2021/11/02 01:54:56;;;;;;;8.90;2.40;;;10.10;99.90;;;;;;5051430;28;20067;-77
2021/11/02 01:57:22;;;;;;;4.18;2.13;;;10.10;99.90;;;;;;5051048;28;20025;-78
2021/11/02 01:59:48;;;;;;;4.28;2.22;;;10.00;99.90;;;;;;5051834;28;20095;-76
2021/11/02 02:02:33;;;;;;;4.65;2.50;;;10.00;99.90;;;;;;5052073;28;20104;-77
2021/11/02 02:05:10;;;;;;;7.15;2.97;;;10.00;99.90;;;;;;5052229;28;20031;-77
2021/11/02 02:07:51;;;;;;;8.25;2.45;;;10.00;99.90;;;;;;5052379;28;20027;-77
2021/11/02 02:10:49;;;;;;;7.40;2.08;;;10.00;99.90;;;;;;5051560;28;20546;-77
2021/11/02 02:13:34;;;;;;;3.15;1.95;;;10.00;99.90;;;;;;5052014;28;20029;-77
2021/11/02 02:16:10;;;;;;;5.43;2.35;;;10.00;99.90;;;;;;5038304;28;20029;-78
2021/11/02 02:18:54;;;;;;;7.30;2.20;;;10.00;99.90;;;;;;5050286;28;20029;-77
2021/11/02 02:21:51;;;;;;;6.70;2.80;;;10.00;99.90;;;;;;5042246;28;20038;-77
2021/11/02 02:24:31;;;;;;;10.02;3.20;;;9.90;99.90;;;;;;5051693;28;20056;-77
2021/11/02 02:27:12;;;;;;;8.27;4.43;;;10.00;99.90;;;;;;5043846;28;20021;-77
2021/11/02 02:29:42;;;;;;;14.95;7.15;;;9.90;99.90;;;;;;5050908;28;20024;-77
2021/11/02 02:32:15;;;;;;;15.50;7.18;;;9.90;99.90;;;;;;5033879;28;20120;-77
2021/11/02 02:34:41;;;;;;;11.98;7.00;;;9.90;99.90;;;;;;5051247;28;20017;-77
2021/11/02 02:37:08;;;;;;;15.10;10.20;;;9.90;99.90;;;;;;5049280;28;20068;-77
2021/11/02 02:39:34;;;;;;;17.55;9.50;;;9.90;99.90;;;;;;5051062;28;20054;-77
2021/11/02 02:42:00;;;;;;;14.32;8.48;;;9.90;99.90;;;;;;5051658;28;20036;-77
2021/11/02 02:44:28;;;;;;;13.55;7.55;;;9.90;99.90;;;;;;5033523;28;20081;-77
2021/11/02 02:46:55;;;;;;;15.50;8.63;;;9.90;99.90;;;;;;5033756;28;20025;-77
2021/11/02 02:49:22;;;;;;;12.95;7.97;;;9.90;99.90;;;;;;5054084;28;20028;-77
2021/11/02 02:51:50;;;;;;;12.98;8.20;;;9.80;99.90;;;;;;5055073;28;20036;-77
2021/11/02 02:54:17;;;;;;;14.65;7.85;;;9.80;99.90;;;;;;5048983;28;20048;-77
2021/11/02 02:56:46;;;;;;;18.05;8.98;;;9.80;99.90;;;;;;5054692;28;20023;-77
2021/11/02 02:59:12;;;;;;;14.98;9.88;;;9.80;99.90;;;;;;5037109;28;20520;-77
2021/11/02 03:01:38;;;;;;;15.18;10.95;;;9.80;99.90;;;;;;5055118;28;20025;-77
2021/11/02 03:04:08;;;;;;;15.70;10.25;;;9.90;99.90;;;;;;5055709;28;20044;-77
2021/11/02 03:06:37;;;;;;;18.60;9.63;;;9.80;99.90;;;;;;5055277;28;20040;-77
2021/11/02 03:09:05;;;;;;;14.90;9.23;;;9.80;99.90;;;;;;5055056;28;20175;-77
2021/11/02 03:11:32;;;;;;;11.48;5.78;;;9.80;99.90;;;;;;5054843;28;20065;-77
2021/11/02 03:14:04;;;;;;;9.10;2.50;;;9.80;99.90;;;;;;5055190;28;20013;-77
2021/11/02 03:16:45;;;;;;;8.13;2.67;;;9.70;99.90;;;;;;5054265;28;20554;-77
2021/11/02 03:55:07;;;;;;;5.97;2.85;;;9.70;99.90;;;;;;5053845;28;20033;-77
2021/11/02 03:57:48;;;;;;;4.05;2.50;;;9.60;99.90;;;;;;5053870;28;20090;-77
2021/11/02 05:09:14;;;;;;;8.65;2.40;;;9.40;99.90;;;;;;5052402;28;20080;-77
2021/11/02 05:50:02;;;;;;;8.75;5.50;;;9.40;99.90;;;;;;5057739;28;20032;-76
2021/11/02 05:55:26;;;;;;;7.95;6.03;;;9.40;99.90;;;;;;5051888;28;20040;-77
2021/11/02 05:58:12;;;;;;;8.60;6.50;;;9.40;99.90;;;;;;5046318;28;20050;-77
2021/11/02 06:01:35;;;;;;;8.82;5.40;;;9.40;99.90;;;;;;5052404;28;20025;-77
2021/11/02 06:31:06;;;;;;;9.27;4.75;;;9.50;99.90;;;;;;5055510;28;20029;-77
2021/11/02 06:36:11;;;;;;;9.02;4.95;;;9.50;99.90;;;;;;5055258;28;20100;-77
2021/11/02 06:47:06;;;;;;;10.15;4.80;;;9.60;99.90;;;;;;5055496;28;20029;-77
2021/11/02 06:59:05;;;;;;;6.95;4.70;;;9.60;99.90;;;;;;5048927;28;20155;-77
2021/11/02 07:17:42;;;;;;;12.55;6.60;;;9.70;99.90;;;;;;5053895;28;20538;-77
2021/11/02 08:46:04;;;;;;;11.73;7.13;;;10.30;99.90;;;;;;5046969;28;20120;-76
2021/11/02 08:48:30;;;;;;;18.00;8.15;;;10.40;99.90;;;;;;5048447;28;20055;-77
2021/11/02 08:50:56;;;;;;;10.52;6.95;;;10.50;99.90;;;;;;5042863;28;20041;-73
2021/11/02 08:53:24;;;;;;;11.15;6.13;;;10.40;99.90;;;;;;5047815;28;20116;-77
2021/11/02 08:55:51;;;;;;;12.02;6.93;;;10.50;99.90;;;;;;5048875;28;20445;-77
2021/11/02 08:58:25;;;;;;;11.70;7.30;;;10.60;99.90;;;;;;5048148;28;20028;-77
2021/11/02 09:00:56;;;;;;;12.70;8.13;;;10.60;99.90;;;;;;5032078;28;20020;-77
2021/11/02 09:03:27;;;;;;;17.38;7.88;;;10.70;99.90;;;;;;5047205;28;20025;-77
2021/11/02 09:06:03;;;;;;;13.55;6.70;;;10.70;99.90;;;;;;5035903;28;20539;-77
2021/11/02 09:08:30;;;;;;;10.75;7.10;;;10.70;99.90;;;;;;5043717;28;20021;-77
2021/11/02 09:11:00;;;;;;;13.32;7.47;;;10.60;99.90;;;;;;5047502;28;20060;-77
2021/11/02 09:13:26;;;;;;;11.80;7.22;;;10.70;99.90;;;;;;5042926;28;20477;-77
2021/11/02 09:15:59;;;;;;;10.27;6.40;;;10.80;99.90;;;;;;5031713;28;20021;-77
2021/11/02 09:18:25;;;;;;;;;;;10.90;99.90;;;;;;5046938;28;20029;-77
2021/11/02 09:20:50;;;;;;;8.60;6.63;;;10.80;99.90;;;;;;5049676;28;19954;-76
2021/11/02 09:23:16;;;;;;;13.77;6.65;;;10.90;99.90;;;;;;5043213;28;20083;-77
2021/11/02 09:25:42;;;;;;;11.75;6.97;;;11.00;99.90;;;;;;5044392;28;20028;-76
2021/11/02 09:28:07;;;;;;;11.75;7.10;;;11.00;99.90;;;;;;5048245;28;20024;-77
2021/11/02 09:30:34;;;;;;;11.98;6.35;;;11.10;99.90;;;;;;5048083;28;20036;-77
2021/11/02 09:33:00;;;;;;;12.32;6.38;;;11.20;99.90;;;;;;5043797;28;20021;-77
2021/11/02 09:35:30;;;;;;;8.93;5.60;;;11.20;99.90;;;;;;5045489;28;20039;-76
2021/11/02 09:38:04;;;;;;;8.65;5.50;;;11.20;99.90;;;;;;5043161;28;20021;-77
2021/11/02 09:40:30;;;;;;;13.15;4.70;;;11.10;99.90;;;;;;5044393;28;20056;-77
2021/11/02 09:43:14;;;;;;;9.75;5.05;;;11.00;99.90;;;;;;5049756;28;20060;-77
2021/11/02 09:45:58;;;;;;;7.07;5.30;;;11.10;99.90;;;;;;5048283;28;20025;-77
2021/11/02 09:48:56;;;;;;;9.30;5.30;;;11.10;99.90;;;;;;5045077;28;20036;-76
2021/11/02 09:51:48;;;;;;;8.52;5.18;;;11.30;99.90;;;;;;5008020;28;20053;-77
2021/11/02 09:54:49;;;;;;;8.20;5.57;;;11.30;99.90;;;;;;5050607;28;20021;-77
2021/11/02 09:57:16;;;;;;;9.35;5.03;;;11.30;99.90;;;;;;5041308;28;20029;-77
2021/11/02 10:00:10;;;;;;;13.60;7.63;;;11.50;99.90;;;;;;5047686;28;20017;-77
2021/11/02 10:03:24;;;;;;;6.72;5.43;;;11.50;99.90;;;;;;5054353;28;20036;-76
2021/11/02 10:06:36;;;;;;;6.60;5.32;;;11.50;99.90;;;;;;5044150;28;20048;-77
2021/11/02 10:09:05;;;;;;;7.53;5.13;;;11.50;99.90;;;;;;5055315;28;20031;-77
2021/11/02 10:12:07;;;;;;;9.63;6.65;;;11.40;99.90;;;;;;5034474;28;20028;-77
2021/11/02 10:15:01;;;;;;;6.55;5.30;;;11.40;99.90;;;;;;5048166;28;20157;-77
2021/11/02 10:17:54;;;;;;;9.38;5.32;;;11.40;99.90;;;;;;5055073;28;20025;-77
2021/11/02 10:20:23;;;;;;;8.48;4.68;;;11.40;99.90;;;;;;5048853;28;20481;-77
2021/11/02 10:23:43;;;;;;;5.85;4.47;;;11.50;99.90;;;;;;5054667;28;20171;-77
2021/11/02 10:27:10;;;;;;;7.13;5.10;;;11.50;99.90;;;;;;4973233;28;20459;-77
2021/11/02 10:29:48;;;;;;;7.80;4.60;;;11.60;99.90;;;;;;4958348;28;20027;-77
2021/11/02 10:32:15;;;;;;;9.60;5.35;;;11.70;99.90;;;;;;5039110;28;20081;-77
2021/11/02 10:34:48;;;;;;;9.27;4.60;;;11.80;99.90;;;;;;5054788;28;20043;-77
2021/11/02 10:37:40;;;;;;;7.22;4.82;;;11.70;99.90;;;;;;5049119;28;20041;-77
2021/11/02 10:40:23;;;;;;;7.65;4.63;;;11.80;99.90;;;;;;5049006;28;20034;-77
2021/11/02 10:43:22;;;;;;;8.70;4.95;;;11.80;99.90;;;;;;5053565;28;20036;-77
2021/11/02 10:45:59;;;;;;;11.18;5.70;;;11.80;99.90;;;;;;5050415;28;20061;-77
2021/11/02 10:48:48;;;;;;;6.47;4.70;;;11.90;99.90;;;;;;5055402;28;20025;-79
2021/11/02 10:51:36;;;;;;;8.07;6.30;;;11.90;99.90;;;;;;5050955;28;20492;-77
2021/11/02 10:54:05;;;;;;;5.85;4.47;;;12.00;99.90;;;;;;5044980;28;20028;-78
2021/11/02 10:57:13;;;;;;;17.10;13.05;;;12.00;99.90;;;;;;5044990;28;20091;-77
2021/11/02 10:59:48;;;;;;;5.20;3.83;;;12.10;99.90;;;;;;5050083;28;20029;-77
2021/11/02 11:02:26;;;;;;;6.18;3.95;;;12.10;99.90;;;;;;5047806;28;20031;-77
2021/11/02 11:04:54;;;;;;;6.65;3.63;;;12.10;99.90;;;;;;5049990;28;20386;-77
2021/11/02 11:07:21;;;;;;;8.15;3.90;;;12.00;99.90;;;;;;5054554;28;20504;-78
2021/11/02 11:09:47;;;;;;;5.45;3.53;;;12.10;99.90;;;;;;5051813;28;20477;-78
2021/11/02 11:12:14;;;;;;;9.30;3.83;;;12.10;99.90;;;;;;5034753;28;20052;-77
2021/11/02 11:14:44;;;;;;;6.60;4.20;;;12.20;99.90;;;;;;5050865;28;20141;-77
2021/11/02 11:17:15;;;;;;;3.38;2.65;;;12.20;99.90;;;;;;5051191;28;20368;-77
2021/11/02 11:19:49;;;;;;;3.28;2.40;;;12.20;99.90;;;;;;5048572;28;20025;-78
2021/11/02 11:22:20;;;;;;;6.10;2.92;;;12.20;99.90;;;;;;5049695;28;20358;-77
2021/11/02 11:25:02;;;;;;;3.17;2.50;;;12.30;99.90;;;;;;5048119;28;20374;-77
2021/11/02 11:27:28;;;;;;;3.45;2.60;;;12.30;99.90;;;;;;5051650;28;20025;-77
2021/11/02 11:30:03;;;;;;;6.78;3.33;;;12.20;99.90;;;;;;5050702;28;20555;-79
2021/11/02 11:32:34;;;;;;;5.88;2.72;;;12.10;99.90;;;;;;5035699;28;20504;-77
2021/11/02 11:35:02;;;;;;;4.28;2.70;;;12.10;99.90;;;;;;5045908;28;20020;-77
2021/11/02 11:37:28;;;;;;;3.75;1.92;;;12.20;99.90;;;;;;5039882;28;20029;-77
2021/11/02 11:40:00;;;;;;;4.90;2.65;;;12.10;99.90;;;;;;5052027;28;20017;-78
2021/11/02 11:42:31;;;;;;;7.57;3.75;;;12.10;99.90;;;;;;5050290;28;20033;-77
2021/11/02 11:45:03;;;;;;;4.95;2.28;;;12.20;99.90;;;;;;5051717;28;20106;-77
2021/11/02 11:47:29;;;;;;;7.15;2.00;;;12.00;99.90;;;;;;5033769;28;20574;-77
2021/11/02 11:49:55;;;;;;;4.82;1.48;;;12.10;99.90;;;;;;5047726;28;20088;-77
2021/11/02 11:52:25;;;;;;;3.22;2.17;;;12.10;99.90;;;;;;5041282;28;20098;-77
2021/11/02 11:54:57;;;;;;;3.35;2.10;;;12.10;99.90;;;;;;5051868;28;20500;-77
2021/11/02 11:57:32;;;;;;;3.33;2.28;;;12.10;99.90;;;;;;5050850;28;20562;-77
2021/11/02 12:00:19;;;;;;;5.78;2.55;;;12.20;99.90;;;;;;5051837;28;20024;-77
2021/11/02 12:03:16;;;;;;;5.55;3.38;;;12.10;99.90;;;;;;5052016;28;20400;-78
2021/11/02 12:05:44;;;;;;;9.82;3.40;;;12.20;99.90;;;;;;5051661;28;20033;-79
2021/11/02 12:08:38;;;;;;;6.38;2.80;;;12.10;99.90;;;;;;5052924;28;20032;-79
2021/11/02 12:11:04;;;;;;;3.72;2.65;;;11.90;99.90;;;;;;5045628;28;20071;-79
2021/11/02 12:13:38;;;;;;;4.35;1.50;;;11.90;99.90;;;;;;5050777;28;20516;-78
2021/11/02 12:16:19;;;;;;;3.22;1.27;;;11.70;99.90;;;;;;5045961;28;20029;-78
2021/11/02 12:18:49;;;;;;;3.03;1.95;;;11.70;99.90;;;;;;5048964;28;20032;-77
2021/11/02 12:21:18;;;;;;;3.65;2.30;;;11.90;99.90;;;;;;5050820;28;20025;-76
2021/11/02 12:23:48;;;;;;;7.88;3.10;;;11.90;99.90;;;;;;5052196;28;20055;-76
2021/11/02 12:26:14;;;;;;;4.45;2.50;;;12.00;99.90;;;;;;5052223;28;20381;-76
2021/11/02 12:28:42;;;;;;;3.88;2.85;;;12.00;99.90;;;;;;5034228;28;20496;-75
2021/11/02 12:31:13;;;;;;;5.20;3.60;;;12.10;99.90;;;;;;5051717;28;20047;-76
2021/11/02 12:33:48;;;;;;;4.57;3.40;;;12.00;99.90;;;;;;5043482;28;20029;-76
2021/11/02 12:36:25;;;;;;;215.93;176.98;;;12.00;99.90;;;;;;5048647;28;20083;-78
2021/11/02 12:39:04;;;;;;;5.90;4.88;;;12.00;99.90;;;;;;5050442;28;20027;-77
2021/11/02 12:41:30;;;;;;;6.57;4.55;;;12.00;99.90;;;;;;5031570;28;20104;-77
2021/11/02 12:44:09;;;;;;;5.10;4.20;;;12.00;99.90;;;;;;5051184;28;20025;-77
2021/11/02 12:46:39;;;;;;;5.88;3.75;;;12.00;99.90;;;;;;5050646;28;20197;-77
2021/11/02 12:49:07;;;;;;;4.22;3.63;;;12.10;99.90;;;;;;5030415;28;20094;-76
2021/11/02 12:51:44;;;;;;;6.15;4.40;;;12.10;99.90;;;;;;5049975;28;20723;-76
2021/11/02 12:54:13;;;;;;;8.98;4.55;;;11.90;99.90;;;;;;5049563;28;20074;-75
2021/11/02 12:56:41;;;;;;;7.35;4.75;;;11.80;99.90;;;;;;5051167;28;20039;-76
2021/11/02 12:59:28;;;;;;;7.53;4.47;;;11.90;99.90;;;;;;5050654;28;20028;-77
2021/11/02 13:01:58;;;;;;;6.57;4.88;;;11.90;99.90;;;;;;5044088;28;20237;-76
2021/11/02 13:04:33;;;;;;;8.57;5.45;;;12.10;99.90;;;;;;5048947;28;20051;-76
2021/11/02 13:07:01;;;;;;;10.55;5.95;;;12.10;99.90;;;;;;5044482;28;20473;-76
2021/11/02 13:09:34;;;;;;;6.88;5.95;;;12.10;99.90;;;;;;5047884;28;20021;-77
2021/11/02 13:12:09;;;;;;;10.95;7.78;;;12.10;99.90;;;;;;5048254;28;20099;-77
2021/11/02 13:14:44;;;;;;;9.52;6.13;;;12.10;99.90;;;;;;5045273;28;20029;-76
2021/11/02 13:17:11;;;;;;;19.67;17.27;;;12.10;99.90;;;;;;5048105;28;20116;-77
2021/11/02 13:19:43;;;;;;;9.43;6.38;;;12.10;99.90;;;;;;5049356;28;20412;-77
2021/11/02 13:22:29;;;;;;;11.32;7.20;;;12.10;99.90;;;;;;5043591;28;20021;-77
2021/11/02 13:25:03;;;;;;;10.48;6.93;;;12.10;99.90;;;;;;5048600;28;20036;-77
2021/11/02 13:27:45;;;;;;;8.82;7.45;;;12.00;99.90;;;;;;5041911;28;20167;-77
2021/11/02 13:30:33;;;;;;;13.27;7.15;;;12.00;99.90;;;;;;5048291;28;20031;-76
2021/11/02 13:33:02;;;;;;;12.20;7.80;;;12.10;99.90;;;;;;5047559;28;20029;-76
2021/11/02 13:35:47;;;;;;;8.93;6.88;;;12.00;99.90;;;;;;5049669;28;20060;-75
2021/11/02 13:38:22;;;;;;;11.43;7.30;;;12.00;99.90;;;;;;5048189;28;20017;-76
2021/11/02 13:40:49;;;;;;;13.30;7.57;;;12.00;99.90;;;;;;5047794;28;20024;-76
2021/11/02 13:43:38;;;;;;;10.27;7.72;;;12.10;99.90;;;;;;5049361;28;20477;-77
2021/11/02 13:46:06;;;;;;;11.43;7.43;;;12.10;99.90;;;;;;5049383;28;20108;-76
2021/11/02 13:48:33;;;;;;;10.18;7.82;;;12.10;99.90;;;;;;5050382;28;20280;-76
2021/11/02 13:51:01;;;;;;;12.05;8.55;;;12.10;99.90;;;;;;5049064;28;20029;-75
2021/11/02 13:53:32;;;;;;;12.07;9.02;;;12.10;99.90;;;;;;5048027;28;20373;-75
2021/11/02 13:55:57;;;;;;;15.23;9.80;;;12.10;99.90;;;;;;5045906;28;20300;-75
2021/11/02 13:58:23;;;;;;;17.23;11.35;;;12.10;99.90;;;;;;5049675;28;20043;-76
2021/11/02 14:00:49;;;;;;;16.30;11.00;;;12.10;99.90;;;;;;5049656;28;20477;-76
2021/11/02 14:03:20;;;;;;;18.50;11.57;;;12.10;99.90;;;;;;5049055;28;20453;-75
2021/11/02 14:05:49;;;;;;;15.75;10.27;;;12.10;99.90;;;;;;5048580;28;20053;-75
2021/11/02 14:08:21;;;;;;;9.77;7.88;;;12.10;99.90;;;;;;5050968;28;20029;-75
2021/11/02 14:10:58;;;;;;;15.63;9.70;;;12.10;99.90;;;;;;5047055;28;20040;-74
2021/11/02 14:13:56;;;;;;;18.92;10.80;;;12.10;99.90;;;;;;5050086;28;20374;-75
2021/11/02 14:16:36;;;;;;;13.98;9.65;;;12.10;99.90;;;;;;5023533;28;20132;-75
2021/11/02 14:19:03;;;;;;;11.55;9.32;;;12.10;99.90;;;;;;5051183;28;20013;-75
2021/11/02 14:21:48;;;;;;;11.18;9.45;;;12.10;99.90;;;;;;5049055;28;20033;-75
2021/11/02 14:24:15;;;;;;;12.75;8.98;;;12.10;99.90;;;;;;5050726;28;20473;-74
2021/11/02 14:26:50;;;;;;;17.20;10.77;;;12.10;99.90;;;;;;5042057;28;20100;-75
2021/11/02 14:29:18;;;;;;;11.43;9.32;;;12.10;99.90;;;;;;5050743;28;20028;-75
2021/11/02 14:31:48;;;;;;;14.43;10.13;;;12.10;99.90;;;;;;5048086;28;20055;-75
2021/11/02 14:34:28;;;;;;;15.82;10.10;;;12.20;99.90;;;;;;5050032;28;20028;-74
2021/11/02 14:37:15;;;;;;;14.40;11.18;;;12.20;99.90;;;;;;5044322;28;20025;-75
2021/11/02 14:40:06;;;;;;;15.70;11.05;;;12.20;99.90;;;;;;5049938;28;20595;-76
2021/11/02 14:42:49;;;;;;;13.90;10.05;;;12.10;99.90;;;;;;5049092;28;20048;-76
2021/11/02 14:45:19;;;;;;;18.60;12.63;;;12.00;99.90;;;;;;5050726;28;20017;-75
2021/11/02 14:47:46;;;;;;;16.27;12.18;;;12.00;99.90;;;;;;5053107;28;20021;-75
2021/11/02 14:50:37;;;;;;;15.30;12.20;;;12.00;99.90;;;;;;5035527;28;20040;-75
2021/11/02 14:53:28;;;;;;;16.42;11.55;;;12.00;99.90;;;;;;5052566;28;20025;-73
2021/11/02 14:56:06;;;;;;;17.58;12.38;;;11.90;99.90;;;;;;5049188;28;22022;-75
2021/11/02 14:58:40;;;;;;;14.25;10.93;;;11.90;99.90;;;;;;5053325;28;20024;-75
2021/11/02 15:01:13;;;;;;;13.63;10.52;;;11.90;99.90;;;;;;5053262;28;20112;-75
2021/11/02 15:03:55;;;;;;;14.38;10.70;;;11.80;99.90;;;;;;5051411;28;20033;-75
2021/11/02 15:06:31;;;;;;;18.35;12.25;;;11.90;99.90;;;;;;5052131;28;20389;-74
2021/11/02 15:08:58;;;;;;;17.88;11.70;;;11.80;99.90;;;;;;5052537;28;20520;-74
2021/11/02 15:11:24;;;;;;;14.75;11.27;;;11.90;99.90;;;;;;5053097;28;20025;-75
2021/11/02 15:13:53;;;;;;;17.25;11.13;;;11.90;99.90;;;;;;5049512;28;20040;-75
2021/11/02 15:16:20;;;;;;;14.70;10.30;;;11.90;99.90;;;;;;5051884;28;20427;-73
2021/11/02 15:18:50;;;;;;;19.13;11.07;;;11.90;99.90;;;;;;5053276;28;20054;-74
2021/11/02 15:21:28;;;;;;;14.15;10.13;;;11.90;99.90;;;;;;5052684;28;20025;-74
2021/11/02 15:23:54;;;;;;;10.77;8.82;;;11.90;99.90;;;;;;5050713;28;20013;-74
2021/11/02 15:26:20;;;;;;;12.85;9.02;;;11.90;99.90;;;;;;5051664;28;20390;-74
2021/11/02 15:28:48;;;;;;;11.82;7.90;;;11.90;99.90;;;;;;5049014;28;20154;-74
2021/11/02 15:31:18;;;;;;;11.93;8.63;;;12.00;99.90;;;;;;5032635;28;20032;-74
2021/11/02 15:33:45;;;;;;;11.07;8.85;;;11.90;99.90;;;;;;5051737;28;20017;-74
2021/11/02 15:36:19;;;;;;;10.90;8.90;;;11.90;99.90;;;;;;5053345;28;20043;-74
2021/11/02 15:39:00;;;;;;;13.38;8.70;;;11.90;99.90;;;;;;5044546;28;20055;-74
2021/11/02 15:41:27;;;;;;;10.75;8.32;;;11.90;99.90;;;;;;5053062;28;20524;-74
2021/11/02 15:44:03;;;;;;;11.70;8.48;;;12.00;99.90;;;;;;5051830;28;20025;-78
2021/11/02 15:46:37;;;;;;;10.15;7.85;;;11.90;99.90;;;;;;5034455;28;20058;-74
2021/11/02 15:49:05;;;;;;;8.15;6.85;;;11.90;99.90;;;;;;5053264;28;20028;-74
2021/11/02 15:51:38;;;;;;;10.48;7.00;;;11.90;99.90;;;;;;5051691;28;20045;-74
2021/11/02 15:54:13;;;;;;;9.82;7.78;;;11.90;99.90;;;;;;5053053;28;20017;-75
2021/11/02 15:56:39;;;;;;;9.75;6.88;;;11.90;99.90;;;;;;5051564;28;20120;-74
2021/11/02 15:59:08;;;;;;;8.75;7.07;;;12.00;99.90;;;;;;5052262;28;20381;-77
2021/11/02 16:01:47;;;;;;;9.90;6.85;;;11.90;99.90;;;;;;5052632;28;20067;-76
2021/11/02 16:04:33;;;;;;;10.07;7.22;;;11.90;99.90;;;;;;5051063;28;20028;-76
2021/11/02 16:07:10;;;;;;;9.48;6.75;;;11.90;99.90;;;;;;5045941;28;20045;-77
2021/11/02 16:09:53;;;;;;;10.23;7.43;;;11.90;99.90;;;;;;5050816;28;20143;-76
2021/11/02 16:12:26;;;;;;;8.98;7.07;;;11.90;99.90;;;;;;5051490;28;20041;-76
2021/11/02 16:14:58;;;;;;;6.22;5.63;;;11.80;99.90;;;;;;5052770;28;20089;-76
2021/11/02 16:17:26;;;;;;;8.98;6.90;;;11.80;99.90;;;;;;5049261;28;20036;-75
2021/11/02 16:19:54;;;;;;;9.57;7.03;;;11.80;99.90;;;;;;5033354;28;20014;-76
2021/11/02 16:22:21;;;;;;;10.82;7.63;;;11.70;99.90;;;;;;5050886;28;20861;-76
2021/11/02 16:25:04;;;;;;;8.82;7.35;;;11.70;99.90;;;;;;5051963;28;20017;-76
2021/11/02 16:27:30;;;;;;;8.93;6.82;;;11.60;99.90;;;;;;5048181;28;20032;-77
2021/11/02 16:29:56;;;;;;;10.20;6.85;;;11.60;99.90;;;;;;5051828;28;20017;-75
2021/11/02 16:32:27;;;;;;;13.95;7.30;;;11.60;99.90;;;;;;5031807;28;20032;-75
2021/11/02 16:34:55;;;;;;;9.20;7.25;;;11.60;99.90;;;;;;5051582;28;20095;-76
2021/11/02 16:37:37;;;;;;;9.45;7.43;;;11.60;99.90;;;;;;5052117;28;20021;-75
2021/11/02 16:40:22;;;;;;;13.27;7.82;;;11.60;99.90;;;;;;5051692;28;20021;-79
2021/11/02 16:42:56;;;;;;;10.50;7.38;;;11.50;99.90;;;;;;5044101;28;20496;-75
2021/11/02 16:45:23;;;;;;;13.27;7.32;;;11.50;99.90;;;;;;5052444;28;20108;-75
2021/11/02 16:47:56;;;;;;;12.93;8.57;;;11.40;99.90;;;;;;5051237;28;20040;-75
2021/11/02 16:50:31;;;;;;;11.05;7.68;;;11.40;99.90;;;;;;5043267;28;20488;-76
2021/11/02 16:53:21;;;;;;;15.98;10.70;;;11.40;99.90;;;;;;5033373;28;20477;-75
2021/11/02 16:55:47;;;;;;;16.20;10.57;;;11.30;99.90;;;;;;5046234;28;20026;-76
2021/11/02 16:58:21;;;;;;;12.15;8.20;;;11.20;99.90;;;;;;5050861;28;20381;-75
2021/11/02 17:01:08;;;;;;;12.18;8.90;;;11.20;99.90;;;;;;5047133;28;20059;-75
2021/11/02 17:03:35;;;;;;;10.52;9.00;;;11.20;99.90;;;;;;5048330;28;20469;-75
2021/11/02 17:06:13;;;;;;;12.23;9.05;;;11.20;99.90;;;;;;5050980;28;20071;-74
2021/11/02 17:09:15;;;;;;;15.27;9.32;;;11.10;99.90;;;;;;5051486;28;20625;-76
2021/11/02 17:11:45;;;;;;;11.73;8.05;;;11.10;99.90;;;;;;5047007;28;20061;-76
2021/11/02 17:14:14;;;;;;;16.88;7.93;;;11.00;99.90;;;;;;5049030;28;20017;-76
2021/11/02 17:16:44;;;;;;;12.23;8.75;;;10.90;99.90;;;;;;5050395;28;20056;-75
2021/11/02 17:19:11;;;;;;;12.15;8.13;;;11.00;99.90;;;;;;5049561;28;20559;-75
2021/11/02 17:21:38;;;;;;;14.60;8.82;;;10.80;99.90;;;;;;5045964;28;20029;-76
2021/11/02 17:24:06;;;;;;;14.10;8.80;;;10.80;99.90;;;;;;5051080;28;20021;-76
2021/11/02 17:26:34;;;;;;;13.60;8.18;;;10.80;99.90;;;;;;5050218;28;20081;-76
2021/11/02 17:29:02;;;;;;;13.65;8.60;;;10.80;99.90;;;;;;5051096;28;20013;-76
2021/11/02 17:31:36;;;;;;;12.65;8.88;;;10.80;99.90;;;;;;5050740;28;20039;-75
2021/11/02 17:34:03;;;;;;;13.75;9.27;;;10.80;99.90;;;;;;5050290;28;20029;-75
2021/11/02 17:36:29;;;;;;;14.05;9.98;;;10.70;99.90;;;;;;5050626;28;20040;-77
2021/11/02 17:38:56;;;;;;;14.10;10.40;;;10.70;99.90;;;;;;5050641;28;20024;-78
2021/11/02 17:41:22;;;;;;;10.68;9.13;;;10.70;99.90;;;;;;5046546;28;20099;-80
2021/11/02 17:43:53;;;;;;;12.80;9.45;;;10.60;99.90;;;;;;5050169;28;20060;-81
2021/11/02 17:46:19;;;;;;;13.40;9.73;;;10.60;99.90;;;;;;5046909;28;20025;-79
2021/11/02 17:48:45;;;;;;;13.85;9.75;;;10.60;99.90;;;;;;5049002;28;20025;-76
2021/11/02 17:51:11;;;;;;;12.77;8.75;;;10.50;99.90;;;;;;5049106;28;20056;-76
2021/11/02 17:53:38;;;;;;;20.80;10.02;;;10.50;99.90;;;;;;5049838;28;20087;-78
2021/11/02 17:56:09;;;;;;;17.20;11.80;;;10.40;99.90;;;;;;5032484;28;20062;-76
2021/11/02 17:58:38;;;;;;;14.73;9.57;;;10.40;99.90;;;;;;5050498;28;20075;-79
2021/11/02 18:01:05;;;;;;;17.65;10.10;;;10.40;99.90;;;;;;5050784;28;20021;-76
2021/11/02 18:03:38;;;;;;;13.63;9.18;;;10.30;99.90;;;;;;5049941;28;20086;-76
2021/11/02 18:06:06;;;;;;;14.05;10.98;;;10.30;99.90;;;;;;5050569;28;20028;-76
2021/11/02 18:08:36;;;;;;;14.52;12.70;;;10.20;99.90;;;;;;5050022;28;20484;-76
2021/11/02 18:11:03;;;;;;;12.38;10.85;;;10.10;99.90;;;;;;5050432;28;20040;-77
2021/11/02 18:13:29;;;;;;;13.68;10.55;;;10.10;99.90;;;;;;5049767;28;20102;-77
2021/11/02 18:15:57;;;;;;;16.15;12.20;;;10.20;99.90;;;;;;5047991;28;20151;-76